Bonum — CRA5490 — position and weather

sailwx.info

Track history (hours):
 
Tides and Currents Weather Stations Pressure Air Temp Water Temp Dewpoint Dewpoint Depression Visibility Wind Speed Wind Dir Waves Ship Positions

Bonum

Last reported at 2016-Jul-13 23:07 UTC. Time now 2016-Jul-23 16:57 UTC.
Position N 37°52' E 015°59'.
Warning: this ship's position is 9 days out of date.

Length 38 m; draft 3.2 m.

Type: Ship. MMSI: 255910770.

Date/timePositionNaut miles runAvg speedWind from/ knotsBaromVisibWave heightAir tempDewpointWater temp
2016-Jul-13 23:07N 37°52' E 015°59'6 9.7
2016-Jul-13 22:31N 37°53' E 015°52'1010.0
2016-Jul-13 21:33N 37°55' E 015°41'1010.0
2016-Jul-13 20:33N 38°05' E 015°35'1111.0
2016-Jul-13 19:33N 38°15' E 015°39'9 9.4
2016-Jul-13 18:33N 38°22' E 015°31'1110.6
2016-Jul-13 17:33N 38°29' E 015°20'1110.6
2016-Jul-13 16:29N 38°38' E 015°10'1010.4
2016-Jul-13 15:30N 38°43' E 014°59'2010.4
2016-Jul-13 13:33N 38°54' E 014°37'1410.5
2016-Jul-13 12:13N 39°01' E 014°22'810.6
2016-Jul-13 11:29N 39°05' E 014°14'1410.7
2016-Jul-13 10:08N 39°13' E 013°58'610.6
2016-Jul-13 09:33N 39°16' E 013°51'1110.8
2016-Jul-13 08:33N 39°22' E 013°40'1110.8
2016-Jul-13 07:33N 39°28' E 013°28'1110.8
2016-Jul-13 06:33N 39°34' E 013°16'1110.9
2016-Jul-13 05:33N 39°39' E 013°04'3310.8
2016-Jul-13 02:33N 39°56' E 012°27'1110.7
2016-Jul-13 01:33N 40°01' E 012°15'1110.7
2016-Jul-13 00:33N 40°07' E 012°03'1010.6
2016-Jul-12 23:33N 40°12' E 011°51'1210.6
2016-Jul-12 22:28N 40°18' E 011°38'1310.5
2016-Jul-12 21:11N 40°25' E 011°23'810.5
2016-Jul-12 20:27N 40°29' E 011°15'1010.6
2016-Jul-12 19:30N 40°34' E 011°03'1510.9
2016-Jul-12 18:07N 40°42' E 010°46'611.4
2016-Jul-12 17:33N 40°45' E 010°39'1111.3
2016-Jul-12 16:33N 40°50' E 010°26'1111.2
2016-Jul-12 15:33N 40°56' E 010°13'1111.1
2016-Jul-12 14:33N 41°02' E 010°00'1110.8
2016-Jul-12 13:32N 41°07' E 009°48'1010.6
2016-Jul-12 12:33N 41°13' E 009°36'1110.6
2016-Jul-12 11:33N 41°19' E 009°24'  
Track history (hours):
 
Tides and Currents Weather Stations Pressure Air Temp Water Temp Dewpoint Dewpoint Depression Visibility Wind Speed Wind Dir Waves Ship Positions

Bonum

Last reported at 2016-Jul-13 23:07 UTC. Time now 2016-Jul-23 16:57 UTC.
Position N 37°52' E 015°59'.
Warning: this ship's position is 9 days out of date.

Length 38 m; draft 3.2 m.

Type: Ship. MMSI: 255910770.

Date/timePositionNaut miles runAvg speedWind from/ knotsBaromVisibWave heightAir tempDewpointWater temp
2016-Jul-13 23:07N 37°52' E 015°59'6 9.7
2016-Jul-13 22:31N 37°53' E 015°52'1010.0
2016-Jul-13 21:33N 37°55' E 015°41'1010.0
2016-Jul-13 20:33N 38°05' E 015°35'1111.0
2016-Jul-13 19:33N 38°15' E 015°39'9 9.4
2016-Jul-13 18:33N 38°22' E 015°31'1110.6
2016-Jul-13 17:33N 38°29' E 015°20'1110.6
2016-Jul-13 16:29N 38°38' E 015°10'1010.4
2016-Jul-13 15:30N 38°43' E 014°59'2010.4
2016-Jul-13 13:33N 38°54' E 014°37'1410.5
2016-Jul-13 12:13N 39°01' E 014°22'810.6
2016-Jul-13 11:29N 39°05' E 014°14'1410.7
2016-Jul-13 10:08N 39°13' E 013°58'610.6
2016-Jul-13 09:33N 39°16' E 013°51'1110.8
2016-Jul-13 08:33N 39°22' E 013°40'1110.8
2016-Jul-13 07:33N 39°28' E 013°28'1110.8
2016-Jul-13 06:33N 39°34' E 013°16'1110.9
2016-Jul-13 05:33N 39°39' E 013°04'3310.8
2016-Jul-13 02:33N 39°56' E 012°27'1110.7
2016-Jul-13 01:33N 40°01' E 012°15'1110.7
2016-Jul-13 00:33N 40°07' E 012°03'1010.6
2016-Jul-12 23:33N 40°12' E 011°51'1210.6
2016-Jul-12 22:28N 40°18' E 011°38'1310.5
2016-Jul-12 21:11N 40°25' E 011°23'810.5
2016-Jul-12 20:27N 40°29' E 011°15'1010.6
2016-Jul-12 19:30N 40°34' E 011°03'1510.9
2016-Jul-12 18:07N 40°42' E 010°46'611.4
2016-Jul-12 17:33N 40°45' E 010°39'1111.3
2016-Jul-12 16:33N 40°50' E 010°26'1111.2
2016-Jul-12 15:33N 40°56' E 010°13'1111.1
2016-Jul-12 14:33N 41°02' E 010°00'1110.8
2016-Jul-12 13:32N 41°07' E 009°48'1010.6
2016-Jul-12 12:33N 41°13' E 009°36'1110.6
2016-Jul-12 11:33N 41°19' E 009°24'  

Dump ship's entire track history